Cape Peony — 3FDX6 — position and weather

sailwx.info

Track history (hours):
 
Tides and Currents Weather Stations Pressure Air Temp Water Temp Dewpoint Dewpoint Depression Visibility Wind Speed Wind Dir Waves Ship Positions

Cape Peony

Last reported at 2017-Jun-22 17:09 UTC. Time now 2017-Jun-23 17:21 UTC.
Position N 01°17' E 104°15'.

Length 292 m; draft 14.4 m.

Type: Cargo ship. MMSI: 373590000.

Date/timePositionNaut miles runAvg speedWind from/ knotsBaromVisibWave heightAir tempDewpointWater temp
2017-Jun-22 17:09N 01°17' E 104°15'314.8
2017-Jun-22 16:59N 01°16' E 104°12'712.8
2017-Jun-22 16:27N 01°16' E 104°06'4 8.5
2017-Jun-22 16:00N 01°16' E 104°02'2 3.9
2017-Jun-22 15:30N 01°17' E 103°60'0 0.4
2017-Jun-22 14:58N 01°17' E 104°00'0 0.3
2017-Jun-22 14:28N 01°17' E 104°00'0 0.2
2017-Jun-22 13:28N 01°17' E 103°60'0 0.1
2017-Jun-22 12:55N 01°17' E 103°60'0 0.1
2017-Jun-22 12:19N 01°17' E 103°60'0 0.2
2017-Jun-22 11:55N 01°17' E 103°60'0 0.1
2017-Jun-22 11:28N 01°17' E 103°60'0 0.1
2017-Jun-22 10:58N 01°17' E 103°60'0 0.0
2017-Jun-22 10:25N 01°17' E 103°60'0 0.0
2017-Jun-22 09:58N 01°17' E 103°60'0 0.1
2017-Jun-22 09:28N 01°17' E 103°60'0 0.1
2017-Jun-22 08:58N 01°17' E 103°60'0 0.2
2017-Jun-22 08:28N 01°17' E 103°60'0 0.1
2017-Jun-22 08:00N 01°17' E 103°60'0 0.1
2017-Jun-22 07:30N 01°17' E 103°60'0 0.3
2017-Jun-22 07:00N 01°17' E 104°00'0 0.2
2017-Jun-22 06:31N 01°17' E 104°00'0 0.0
2017-Jun-22 06:00N 01°17' E 104°00'0 0.0
2017-Jun-22 05:30N 01°17' E 104°00'0 0.1
2017-Jun-22 05:01N 01°17' E 104°00'0 0.1
2017-Jun-22 04:30N 01°17' E 104°00'0 0.1
2017-Jun-22 04:00N 01°17' E 104°00'0 0.1
2017-Jun-22 03:30N 01°17' E 104°00'0 0.5
2017-Jun-22 03:00N 01°17' E 104°00'2 4.6
2017-Jun-22 02:30N 01°16' E 103°58'1 2.7
2017-Jun-22 02:00N 01°15' E 103°57'3 5.8
2017-Jun-22 01:30N 01°13' E 103°55'5 9.8
2017-Jun-22 01:00N 01°11' E 103°51'612.4
2017-Jun-22 00:30N 01°08' E 103°45'612.0
2017-Jun-22 00:00N 01°04' E 103°41'611.7
2017-Jun-21 23:30N 01°05' E 103°35'611.7
2017-Jun-21 23:00N 01°08' E 103°30'612.5
2017-Jun-21 22:30N 01°12' E 103°25'712.4
2017-Jun-21 21:58N 01°16' E 103°20'3412.2
2017-Jun-21 19:09N 01°36' E 102°52'312.5
2017-Jun-21 18:55N 01°38' E 102°49'612.6
2017-Jun-21 18:27N 01°41' E 102°44'612.5
2017-Jun-21 18:00N 01°43' E 102°39'612.5
2017-Jun-21 17:29N 01°45' E 102°33'612.5
2017-Jun-21 17:00N 01°47' E 102°27'612.5
2017-Jun-21 16:30N 01°50' E 102°22'  
Track history (hours):
 
Tides and Currents Weather Stations Pressure Air Temp Water Temp Dewpoint Dewpoint Depression Visibility Wind Speed Wind Dir Waves Ship Positions

Cape Peony

Last reported at 2017-Jun-22 17:09 UTC. Time now 2017-Jun-23 17:21 UTC.
Position N 01°17' E 104°15'.

Length 292 m; draft 14.4 m.

Type: Cargo ship. MMSI: 373590000.

Date/timePositionNaut miles runAvg speedWind from/ knotsBaromVisibWave heightAir tempDewpointWater temp
2017-Jun-22 17:09N 01°17' E 104°15'314.8
2017-Jun-22 16:59N 01°16' E 104°12'712.8
2017-Jun-22 16:27N 01°16' E 104°06'4 8.5
2017-Jun-22 16:00N 01°16' E 104°02'2 3.9
2017-Jun-22 15:30N 01°17' E 103°60'0 0.4
2017-Jun-22 14:58N 01°17' E 104°00'0 0.3
2017-Jun-22 14:28N 01°17' E 104°00'0 0.2
2017-Jun-22 13:28N 01°17' E 103°60'0 0.1
2017-Jun-22 12:55N 01°17' E 103°60'0 0.1
2017-Jun-22 12:19N 01°17' E 103°60'0 0.2
2017-Jun-22 11:55N 01°17' E 103°60'0 0.1
2017-Jun-22 11:28N 01°17' E 103°60'0 0.1
2017-Jun-22 10:58N 01°17' E 103°60'0 0.0
2017-Jun-22 10:25N 01°17' E 103°60'0 0.0
2017-Jun-22 09:58N 01°17' E 103°60'0 0.1
2017-Jun-22 09:28N 01°17' E 103°60'0 0.1
2017-Jun-22 08:58N 01°17' E 103°60'0 0.2
2017-Jun-22 08:28N 01°17' E 103°60'0 0.1
2017-Jun-22 08:00N 01°17' E 103°60'0 0.1
2017-Jun-22 07:30N 01°17' E 103°60'0 0.3
2017-Jun-22 07:00N 01°17' E 104°00'0 0.2
2017-Jun-22 06:31N 01°17' E 104°00'0 0.0
2017-Jun-22 06:00N 01°17' E 104°00'0 0.0
2017-Jun-22 05:30N 01°17' E 104°00'0 0.1
2017-Jun-22 05:01N 01°17' E 104°00'0 0.1
2017-Jun-22 04:30N 01°17' E 104°00'0 0.1
2017-Jun-22 04:00N 01°17' E 104°00'0 0.1
2017-Jun-22 03:30N 01°17' E 104°00'0 0.5
2017-Jun-22 03:00N 01°17' E 104°00'2 4.6
2017-Jun-22 02:30N 01°16' E 103°58'1 2.7
2017-Jun-22 02:00N 01°15' E 103°57'3 5.8
2017-Jun-22 01:30N 01°13' E 103°55'5 9.8
2017-Jun-22 01:00N 01°11' E 103°51'612.4
2017-Jun-22 00:30N 01°08' E 103°45'612.0
2017-Jun-22 00:00N 01°04' E 103°41'611.7
2017-Jun-21 23:30N 01°05' E 103°35'611.7
2017-Jun-21 23:00N 01°08' E 103°30'612.5
2017-Jun-21 22:30N 01°12' E 103°25'712.4
2017-Jun-21 21:58N 01°16' E 103°20'3412.2
2017-Jun-21 19:09N 01°36' E 102°52'312.5
2017-Jun-21 18:55N 01°38' E 102°49'612.6
2017-Jun-21 18:27N 01°41' E 102°44'612.5
2017-Jun-21 18:00N 01°43' E 102°39'612.5
2017-Jun-21 17:29N 01°45' E 102°33'612.5
2017-Jun-21 17:00N 01°47' E 102°27'612.5
2017-Jun-21 16:30N 01°50' E 102°22'  

Dump ship's entire track history